sensor_id;sensor_type;location;lat;lon;timestamp;P1;durP1;ratioP1;P2;durP2;ratioP2
34489;SDS011;20730;49.372;7.324;2023-04-03T00:00:39;4.10;;;2.88;;
34489;SDS011;20730;49.372;7.324;2023-04-03T00:03:06;3.10;;;2.33;;
34489;SDS011;20730;49.372;7.324;2023-04-03T00:05:33;2.70;;;2.38;;
34489;SDS011;20730;49.372;7.324;2023-04-03T00:08:00;3.92;;;2.65;;
34489;SDS011;20730;49.372;7.324;2023-04-03T00:10:28;2.50;;;2.00;;
34489;SDS011;20730;49.372;7.324;2023-04-03T00:12:54;9.43;;;2.78;;
34489;SDS011;20730;49.372;7.324;2023-04-03T00:15:21;3.40;;;2.40;;
34489;SDS011;20730;49.372;7.324;2023-04-03T00:17:48;4.28;;;2.50;;
34489;SDS011;20730;49.372;7.324;2023-04-03T00:20:14;4.68;;;2.75;;
34489;SDS011;20730;49.372;7.324;2023-04-03T00:22:41;3.38;;;2.55;;
34489;SDS011;20730;49.372;7.324;2023-04-03T00:25:08;3.67;;;2.38;;
34489;SDS011;20730;49.372;7.324;2023-04-03T00:27:38;3.75;;;2.10;;
34489;SDS011;20730;49.372;7.324;2023-04-03T00:32:33;4.30;;;2.70;;
34489;SDS011;20730;49.372;7.324;2023-04-03T00:34:59;4.35;;;2.53;;
34489;SDS011;20730;49.372;7.324;2023-04-03T00:37:26;3.15;;;2.53;;
34489;SDS011;20730;49.372;7.324;2023-04-03T00:39:53;6.63;;;2.65;;
34489;SDS011;20730;49.372;7.324;2023-04-03T00:42:19;3.72;;;2.60;;
34489;SDS011;20730;49.372;7.324;2023-04-03T00:47:13;5.95;;;2.75;;
34489;SDS011;20730;49.372;7.324;2023-04-03T00:49:42;4.28;;;2.50;;
34489;SDS011;20730;49.372;7.324;2023-04-03T00:52:15;3.25;;;2.55;;
34489;SDS011;20730;49.372;7.324;2023-04-03T00:54:43;3.78;;;2.67;;
34489;SDS011;20730;49.372;7.324;2023-04-03T00:57:10;6.28;;;2.50;;
34489;SDS011;20730;49.372;7.324;2023-04-03T00:59:48;3.00;;;2.30;;
34489;SDS011;20730;49.372;7.324;2023-04-03T01:02:16;3.08;;;2.55;;
34489;SDS011;20730;49.372;7.324;2023-04-03T01:04:43;3.05;;;2.30;;
34489;SDS011;20730;49.372;7.324;2023-04-03T01:07:11;5.88;;;2.30;;
34489;SDS011;20730;49.372;7.324;2023-04-03T01:09:40;2.65;;;2.20;;
34489;SDS011;20730;49.372;7.324;2023-04-03T01:12:17;4.03;;;2.70;;
34489;SDS011;20730;49.372;7.324;2023-04-03T01:14:48;3.22;;;2.33;;
34489;SDS011;20730;49.372;7.324;2023-04-03T01:17:25;4.30;;;2.33;;
34489;SDS011;20730;49.372;7.324;2023-04-03T01:25:38;3.40;;;2.47;;
34489;SDS011;20730;49.372;7.324;2023-04-03T01:28:09;4.47;;;2.38;;
34489;SDS011;20730;49.372;7.324;2023-04-03T01:33:10;3.25;;;2.08;;
34489;SDS011;20730;49.372;7.324;2023-04-03T01:35:37;5.40;;;2.55;;
34489;SDS011;20730;49.372;7.324;2023-04-03T01:38:04;3.63;;;2.03;;
34489;SDS011;20730;49.372;7.324;2023-04-03T01:40:31;3.10;;;2.03;;
34489;SDS011;20730;49.372;7.324;2023-04-03T01:42:57;6.15;;;2.30;;
34489;SDS011;20730;49.372;7.324;2023-04-03T01:45:24;4.10;;;2.35;;
34489;SDS011;20730;49.372;7.324;2023-04-03T01:47:51;4.32;;;2.25;;
34489;SDS011;20730;49.372;7.324;2023-04-03T01:50:18;3.60;;;2.10;;
34489;SDS011;20730;49.372;7.324;2023-04-03T01:52:45;4.05;;;2.72;;
34489;SDS011;20730;49.372;7.324;2023-04-03T01:55:11;3.33;;;2.17;;
34489;SDS011;20730;49.372;7.324;2023-04-03T01:57:38;5.63;;;2.60;;
34489;SDS011;20730;49.372;7.324;2023-04-03T02:00:05;4.70;;;2.60;;
34489;SDS011;20730;49.372;7.324;2023-04-03T02:02:38;4.85;;;2.50;;
34489;SDS011;20730;49.372;7.324;2023-04-03T02:05:05;4.05;;;2.50;;
34489;SDS011;20730;49.372;7.324;2023-04-03T02:07:32;4.80;;;2.53;;
34489;SDS011;20730;49.372;7.324;2023-04-03T02:09:59;4.20;;;2.53;;
34489;SDS011;20730;49.372;7.324;2023-04-03T02:12:26;4.38;;;2.60;;
34489;SDS011;20730;49.372;7.324;2023-04-03T02:14:53;5.35;;;2.70;;
34489;SDS011;20730;49.372;7.324;2023-04-03T02:17:19;8.55;;;3.00;;
34489;SDS011;20730;49.372;7.324;2023-04-03T02:19:46;4.72;;;3.30;;
34489;SDS011;20730;49.372;7.324;2023-04-03T02:22:13;4.97;;;3.15;;
34489;SDS011;20730;49.372;7.324;2023-04-03T02:24:39;7.05;;;2.95;;
34489;SDS011;20730;49.372;7.324;2023-04-03T02:27:06;5.95;;;3.80;;
34489;SDS011;20730;49.372;7.324;2023-04-03T02:29:33;4.07;;;3.03;;
34489;SDS011;20730;49.372;7.324;2023-04-03T02:32:00;5.93;;;3.40;;
34489;SDS011;20730;49.372;7.324;2023-04-03T02:34:27;5.28;;;3.30;;
34489;SDS011;20730;49.372;7.324;2023-04-03T02:36:55;4.93;;;3.05;;
34489;SDS011;20730;49.372;7.324;2023-04-03T02:39:22;4.93;;;3.63;;
34489;SDS011;20730;49.372;7.324;2023-04-03T02:41:48;6.03;;;3.55;;
34489;SDS011;20730;49.372;7.324;2023-04-03T02:44:21;7.05;;;3.60;;
34489;SDS011;20730;49.372;7.324;2023-04-03T02:46:49;7.05;;;3.78;;
34489;SDS011;20730;49.372;7.324;2023-04-03T02:49:16;6.28;;;3.50;;
34489;SDS011;20730;49.372;7.324;2023-04-03T02:51:43;7.75;;;3.60;;
34489;SDS011;20730;49.372;7.324;2023-04-03T02:54:10;6.97;;;3.75;;
34489;SDS011;20730;49.372;7.324;2023-04-03T02:56:41;6.93;;;3.63;;
34489;SDS011;20730;49.372;7.324;2023-04-03T02:59:08;5.20;;;3.40;;
34489;SDS011;20730;49.372;7.324;2023-04-03T03:01:37;6.50;;;4.03;;
34489;SDS011;20730;49.372;7.324;2023-04-03T03:04:03;10.40;;;4.07;;
34489;SDS011;20730;49.372;7.324;2023-04-03T03:06:30;3.97;;;3.53;;
34489;SDS011;20730;49.372;7.324;2023-04-03T03:08:57;5.15;;;3.70;;
34489;SDS011;20730;49.372;7.324;2023-04-03T03:11:24;5.35;;;3.47;;
34489;SDS011;20730;49.372;7.324;2023-04-03T03:13:52;6.28;;;3.72;;
34489;SDS011;20730;49.372;7.324;2023-04-03T03:16:18;5.72;;;3.30;;
34489;SDS011;20730;49.372;7.324;2023-04-03T03:18:45;4.80;;;3.90;;
34489;SDS011;20730;49.372;7.324;2023-04-03T03:21:12;4.82;;;3.35;;
34489;SDS011;20730;49.372;7.324;2023-04-03T03:23:39;5.82;;;3.50;;
34489;SDS011;20730;49.372;7.324;2023-04-03T03:26:07;7.15;;;4.07;;
34489;SDS011;20730;49.372;7.324;2023-04-03T03:28:35;6.97;;;3.47;;
34489;SDS011;20730;49.372;7.324;2023-04-03T03:31:03;4.90;;;3.45;;
34489;SDS011;20730;49.372;7.324;2023-04-03T03:33:31;7.30;;;3.47;;
34489;SDS011;20730;49.372;7.324;2023-04-03T03:35:58;10.20;;;4.30;;
34489;SDS011;20730;49.372;7.324;2023-04-03T03:38:26;9.75;;;3.70;;
34489;SDS011;20730;49.372;7.324;2023-04-03T03:40:53;5.18;;;3.80;;
34489;SDS011;20730;49.372;7.324;2023-04-03T03:43:21;6.80;;;3.17;;
34489;SDS011;20730;49.372;7.324;2023-04-03T03:45:53;6.95;;;3.50;;
34489;SDS011;20730;49.372;7.324;2023-04-03T03:48:22;3.72;;;3.00;;
34489;SDS011;20730;49.372;7.324;2023-04-03T03:50:49;5.20;;;2.92;;
34489;SDS011;20730;49.372;7.324;2023-04-03T03:53:19;5.30;;;2.60;;
34489;SDS011;20730;49.372;7.324;2023-04-03T03:55:48;9.63;;;3.15;;
34489;SDS011;20730;49.372;7.324;2023-04-03T03:58:15;5.72;;;2.70;;
34489;SDS011;20730;49.372;7.324;2023-04-03T04:00:42;4.80;;;2.65;;
34489;SDS011;20730;49.372;7.324;2023-04-03T04:03:10;5.55;;;2.50;;
34489;SDS011;20730;49.372;7.324;2023-04-03T04:05:37;5.03;;;3.20;;
34489;SDS011;20730;49.372;7.324;2023-04-03T04:08:04;5.07;;;2.90;;
34489;SDS011;20730;49.372;7.324;2023-04-03T04:10:31;5.90;;;2.47;;
34489;SDS011;20730;49.372;7.324;2023-04-03T04:12:59;5.30;;;2.58;;
34489;SDS011;20730;49.372;7.324;2023-04-03T04:15:27;5.50;;;2.67;;
34489;SDS011;20730;49.372;7.324;2023-04-03T04:17:55;5.75;;;3.13;;
34489;SDS011;20730;49.372;7.324;2023-04-03T04:20:23;6.65;;;2.80;;
34489;SDS011;20730;49.372;7.324;2023-04-03T04:22:51;5.50;;;2.60;;
34489;SDS011;20730;49.372;7.324;2023-04-03T04:25:19;8.13;;;2.45;;
34489;SDS011;20730;49.372;7.324;2023-04-03T04:27:46;4.43;;;2.63;;
34489;SDS011;20730;49.372;7.324;2023-04-03T04:30:14;4.13;;;2.30;;
34489;SDS011;20730;49.372;7.324;2023-04-03T04:32:42;5.72;;;2.72;;
34489;SDS011;20730;49.372;7.324;2023-04-03T04:35:09;4.70;;;2.30;;
34489;SDS011;20730;49.372;7.324;2023-04-03T04:37:39;3.90;;;1.98;;
34489;SDS011;20730;49.372;7.324;2023-04-03T04:40:07;3.95;;;2.00;;
34489;SDS011;20730;49.372;7.324;2023-04-03T04:42:34;4.25;;;2.13;;
34489;SDS011;20730;49.372;7.324;2023-04-03T04:45:01;3.78;;;2.20;;
34489;SDS011;20730;49.372;7.324;2023-04-03T04:47:28;3.78;;;2.17;;
34489;SDS011;20730;49.372;7.324;2023-04-03T04:49:56;6.28;;;1.88;;
34489;SDS011;20730;49.372;7.324;2023-04-03T04:52:22;2.85;;;2.05;;
34489;SDS011;20730;49.372;7.324;2023-04-03T04:54:52;4.15;;;2.33;;
34489;SDS011;20730;49.372;7.324;2023-04-03T04:57:18;3.47;;;2.13;;
34489;SDS011;20730;49.372;7.324;2023-04-03T04:59:46;1.95;;;1.58;;
34489;SDS011;20730;49.372;7.324;2023-04-03T05:02:13;2.20;;;1.60;;
34489;SDS011;20730;49.372;7.324;2023-04-03T05:04:41;1.80;;;1.63;;
34489;SDS011;20730;49.372;7.324;2023-04-03T05:07:14;4.40;;;1.58;;
34489;SDS011;20730;49.372;7.324;2023-04-03T05:09:41;4.15;;;1.60;;
34489;SDS011;20730;49.372;7.324;2023-04-03T05:12:09;5.03;;;1.63;;
34489;SDS011;20730;49.372;7.324;2023-04-03T05:14:43;2.90;;;1.60;;
34489;SDS011;20730;49.372;7.324;2023-04-03T05:17:10;2.88;;;1.42;;
34489;SDS011;20730;49.372;7.324;2023-04-03T05:19:40;3.65;;;1.83;;
34489;SDS011;20730;49.372;7.324;2023-04-03T05:22:08;4.45;;;2.15;;
34489;SDS011;20730;49.372;7.324;2023-04-03T05:24:35;5.90;;;1.77;;
34489;SDS011;20730;49.372;7.324;2023-04-03T05:27:03;4.45;;;2.20;;
34489;SDS011;20730;49.372;7.324;2023-04-03T05:29:32;3.15;;;1.42;;
34489;SDS011;20730;49.372;7.324;2023-04-03T05:32:00;1.80;;;1.40;;
34489;SDS011;20730;49.372;7.324;2023-04-03T05:34:26;2.97;;;1.88;;
34489;SDS011;20730;49.372;7.324;2023-04-03T05:36:55;3.75;;;1.33;;
34489;SDS011;20730;49.372;7.324;2023-04-03T05:39:22;3.33;;;1.70;;
34489;SDS011;20730;49.372;7.324;2023-04-03T05:41:49;2.15;;;1.52;;
34489;SDS011;20730;49.372;7.324;2023-04-03T05:44:16;4.70;;;1.70;;
34489;SDS011;20730;49.372;7.324;2023-04-03T05:46:45;4.10;;;1.80;;
34489;SDS011;20730;49.372;7.324;2023-04-03T05:49:13;4.07;;;1.50;;
34489;SDS011;20730;49.372;7.324;2023-04-03T05:51:39;2.33;;;1.42;;
34489;SDS011;20730;49.372;7.324;2023-04-03T05:54:28;2.65;;;1.80;;
34489;SDS011;20730;49.372;7.324;2023-04-03T05:57:23;2.30;;;1.65;;
34489;SDS011;20730;49.372;7.324;2023-04-03T05:59:50;3.58;;;1.67;;
34489;SDS011;20730;49.372;7.324;2023-04-03T06:02:19;4.07;;;1.77;;
34489;SDS011;20730;49.372;7.324;2023-04-03T06:07:15;4.50;;;2.08;;
34489;SDS011;20730;49.372;7.324;2023-04-03T06:09:46;6.00;;;1.92;;
34489;SDS011;20730;49.372;7.324;2023-04-03T06:12:13;4.22;;;1.92;;
34489;SDS011;20730;49.372;7.324;2023-04-03T06:14:39;2.92;;;2.00;;
34489;SDS011;20730;49.372;7.324;2023-04-03T06:17:06;2.83;;;1.92;;
34489;SDS011;20730;49.372;7.324;2023-04-03T06:19:34;3.97;;;2.35;;
34489;SDS011;20730;49.372;7.324;2023-04-03T06:22:02;4.03;;;2.10;;
34489;SDS011;20730;49.372;7.324;2023-04-03T06:24:29;3.17;;;1.80;;
34489;SDS011;20730;49.372;7.324;2023-04-03T06:26:56;4.80;;;2.20;;
34489;SDS011;20730;49.372;7.324;2023-04-03T06:29:24;2.45;;;1.65;;
34489;SDS011;20730;49.372;7.324;2023-04-03T06:31:51;2.67;;;1.73;;
34489;SDS011;20730;49.372;7.324;2023-04-03T06:34:18;3.78;;;2.00;;
34489;SDS011;20730;49.372;7.324;2023-04-03T06:36:44;7.15;;;1.60;;
34489;SDS011;20730;49.372;7.324;2023-04-03T06:39:13;6.85;;;1.90;;
34489;SDS011;20730;49.372;7.324;2023-04-03T06:41:42;6.20;;;1.95;;
34489;SDS011;20730;49.372;7.324;2023-04-03T06:44:08;3.78;;;1.52;;
34489;SDS011;20730;49.372;7.324;2023-04-03T06:46:37;4.15;;;2.25;;
34489;SDS011;20730;49.372;7.324;2023-04-03T06:49:09;10.30;;;2.00;;
34489;SDS011;20730;49.372;7.324;2023-04-03T06:51:35;4.68;;;2.20;;
34489;SDS011;20730;49.372;7.324;2023-04-03T06:54:03;2.88;;;1.88;;
34489;SDS011;20730;49.372;7.324;2023-04-03T06:56:31;4.28;;;1.92;;
34489;SDS011;20730;49.372;7.324;2023-04-03T06:58:58;4.28;;;1.98;;
34489;SDS011;20730;49.372;7.324;2023-04-03T07:01:26;5.18;;;1.90;;
34489;SDS011;20730;49.372;7.324;2023-04-03T07:03:54;6.43;;;2.15;;
34489;SDS011;20730;49.372;7.324;2023-04-03T07:06:21;4.03;;;1.77;;
34489;SDS011;20730;49.372;7.324;2023-04-03T07:08:48;4.60;;;1.83;;
34489;SDS011;20730;49.372;7.324;2023-04-03T07:11:15;5.05;;;2.00;;
34489;SDS011;20730;49.372;7.324;2023-04-03T07:13:42;5.05;;;1.98;;
34489;SDS011;20730;49.372;7.324;2023-04-03T07:16:09;4.03;;;1.48;;
34489;SDS011;20730;49.372;7.324;2023-04-03T07:18:36;2.78;;;1.63;;
34489;SDS011;20730;49.372;7.324;2023-04-03T07:21:03;4.47;;;1.80;;
34489;SDS011;20730;49.372;7.324;2023-04-03T07:23:30;7.68;;;2.13;;
34489;SDS011;20730;49.372;7.324;2023-04-03T07:25:57;4.40;;;2.00;;
34489;SDS011;20730;49.372;7.324;2023-04-03T07:28:23;4.10;;;1.67;;
34489;SDS011;20730;49.372;7.324;2023-04-03T07:31:01;6.28;;;1.83;;
34489;SDS011;20730;49.372;7.324;2023-04-03T07:33:28;5.50;;;1.88;;
34489;SDS011;20730;49.372;7.324;2023-04-03T07:35:54;6.10;;;1.90;;
34489;SDS011;20730;49.372;7.324;2023-04-03T07:38:21;4.28;;;1.95;;
34489;SDS011;20730;49.372;7.324;2023-04-03T07:40:49;5.80;;;1.67;;
34489;SDS011;20730;49.372;7.324;2023-04-03T07:43:17;6.10;;;2.10;;
34489;SDS011;20730;49.372;7.324;2023-04-03T07:45:44;6.20;;;1.80;;
34489;SDS011;20730;49.372;7.324;2023-04-03T07:48:11;4.68;;;1.90;;
34489;SDS011;20730;49.372;7.324;2023-04-03T07:50:41;5.90;;;2.42;;
34489;SDS011;20730;49.372;7.324;2023-04-03T07:53:08;5.97;;;2.05;;
34489;SDS011;20730;49.372;7.324;2023-04-03T07:55:35;4.53;;;2.08;;
34489;SDS011;20730;49.372;7.324;2023-04-03T07:58:12;4.85;;;2.05;;
34489;SDS011;20730;49.372;7.324;2023-04-03T08:00:41;5.20;;;2.00;;
34489;SDS011;20730;49.372;7.324;2023-04-03T08:03:09;7.10;;;1.85;;
34489;SDS011;20730;49.372;7.324;2023-04-03T08:08:06;4.93;;;1.92;;
34489;SDS011;20730;49.372;7.324;2023-04-03T08:10:33;6.05;;;2.08;;
34489;SDS011;20730;49.372;7.324;2023-04-03T08:13:00;4.15;;;2.25;;
34489;SDS011;20730;49.372;7.324;2023-04-03T08:15:27;4.90;;;2.35;;
34489;SDS011;20730;49.372;7.324;2023-04-03T08:17:54;3.85;;;2.08;;
34489;SDS011;20730;49.372;7.324;2023-04-03T08:20:21;4.18;;;2.00;;
34489;SDS011;20730;49.372;7.324;2023-04-03T08:22:48;6.25;;;2.38;;
34489;SDS011;20730;49.372;7.324;2023-04-03T08:25:14;6.63;;;2.10;;
34489;SDS011;20730;49.372;7.324;2023-04-03T08:27:41;6.53;;;2.20;;
34489;SDS011;20730;49.372;7.324;2023-04-03T08:30:08;7.40;;;2.80;;
34489;SDS011;20730;49.372;7.324;2023-04-03T08:32:35;5.47;;;2.22;;
34489;SDS011;20730;49.372;7.324;2023-04-03T08:35:03;6.00;;;2.05;;
34489;SDS011;20730;49.372;7.324;2023-04-03T08:37:30;5.13;;;2.33;;
34489;SDS011;20730;49.372;7.324;2023-04-03T08:39:57;6.47;;;2.20;;
34489;SDS011;20730;49.372;7.324;2023-04-03T08:45:26;7.28;;;2.10;;
34489;SDS011;20730;49.372;7.324;2023-04-03T08:48:12;3.58;;;2.20;;
34489;SDS011;20730;49.372;7.324;2023-04-03T08:50:43;7.53;;;2.42;;
34489;SDS011;20730;49.372;7.324;2023-04-03T08:53:17;8.75;;;2.38;;
34489;SDS011;20730;49.372;7.324;2023-04-03T08:55:46;7.13;;;2.53;;
34489;SDS011;20730;49.372;7.324;2023-04-03T09:03:21;4.13;;;1.92;;
34489;SDS011;20730;49.372;7.324;2023-04-03T09:06:05;5.75;;;1.80;;
34489;SDS011;20730;49.372;7.324;2023-04-03T09:08:40;3.97;;;2.03;;
34489;SDS011;20730;49.372;7.324;2023-04-03T09:14:11;5.10;;;1.92;;
34489;SDS011;20730;49.372;7.324;2023-04-03T09:16:58;5.05;;;2.05;;
34489;SDS011;20730;49.372;7.324;2023-04-03T09:22:21;4.57;;;2.00;;
34489;SDS011;20730;49.372;7.324;2023-04-03T09:24:54;6.57;;;2.28;;
34489;SDS011;20730;49.372;7.324;2023-04-03T09:27:23;4.25;;;2.30;;
34489;SDS011;20730;49.372;7.324;2023-04-03T09:29:52;3.42;;;1.77;;
34489;SDS011;20730;49.372;7.324;2023-04-03T09:32:55;6.13;;;2.80;;
34489;SDS011;20730;49.372;7.324;2023-04-03T09:35:27;4.07;;;2.35;;
34489;SDS011;20730;49.372;7.324;2023-04-03T09:40:41;5.47;;;2.15;;
34489;SDS011;20730;49.372;7.324;2023-04-03T09:43:22;4.80;;;2.00;;
34489;SDS011;20730;49.372;7.324;2023-04-03T09:45:51;3.20;;;2.00;;
34489;SDS011;20730;49.372;7.324;2023-04-03T09:48:23;6.10;;;2.05;;
34489;SDS011;20730;49.372;7.324;2023-04-03T09:53:36;3.67;;;1.77;;
34489;SDS011;20730;49.372;7.324;2023-04-03T09:56:17;3.75;;;1.80;;
34489;SDS011;20730;49.372;7.324;2023-04-03T10:01:28;4.72;;;1.77;;
34489;SDS011;20730;49.372;7.324;2023-04-03T10:04:09;3.78;;;1.67;;
34489;SDS011;20730;49.372;7.324;2023-04-03T10:06:47;5.25;;;1.88;;
34489;SDS011;20730;49.372;7.324;2023-04-03T10:12:11;5.22;;;1.67;;
34489;SDS011;20730;49.372;7.324;2023-04-03T10:14:40;3.35;;;1.60;;
34489;SDS011;20730;49.372;7.324;2023-04-03T10:17:28;3.88;;;1.70;;
34489;SDS011;20730;49.372;7.324;2023-04-03T10:20:21;2.80;;;1.50;;
34489;SDS011;20730;49.372;7.324;2023-04-03T10:31:13;4.40;;;1.75;;
34489;SDS011;20730;49.372;7.324;2023-04-03T10:47:37;4.43;;;1.70;;
34489;SDS011;20730;49.372;7.324;2023-04-03T10:50:20;7.15;;;1.77;;
34489;SDS011;20730;49.372;7.324;2023-04-03T10:58:54;2.97;;;1.60;;
34489;SDS011;20730;49.372;7.324;2023-04-03T11:01:25;3.70;;;1.38;;
34489;SDS011;20730;49.372;7.324;2023-04-03T11:03:56;3.88;;;1.60;;
34489;SDS011;20730;49.372;7.324;2023-04-03T11:06:25;4.20;;;1.52;;
34489;SDS011;20730;49.372;7.324;2023-04-03T11:08:57;7.43;;;1.60;;
34489;SDS011;20730;49.372;7.324;2023-04-03T11:11:30;3.42;;;1.58;;
34489;SDS011;20730;49.372;7.324;2023-04-03T11:14:03;3.95;;;1.65;;
34489;SDS011;20730;49.372;7.324;2023-04-03T11:16:33;5.10;;;1.63;;
34489;SDS011;20730;49.372;7.324;2023-04-03T11:19:20;5.00;;;1.92;;
34489;SDS011;20730;49.372;7.324;2023-04-03T11:21:54;5.53;;;2.00;;
34489;SDS011;20730;49.372;7.324;2023-04-03T11:24:25;4.25;;;1.48;;
34489;SDS011;20730;49.372;7.324;2023-04-03T11:26:55;4.38;;;1.65;;
34489;SDS011;20730;49.372;7.324;2023-04-03T11:29:27;3.75;;;1.67;;
34489;SDS011;20730;49.372;7.324;2023-04-03T11:32:04;5.57;;;1.70;;
34489;SDS011;20730;49.372;7.324;2023-04-03T11:34:39;3.58;;;1.60;;
34489;SDS011;20730;49.372;7.324;2023-04-03T11:37:17;3.28;;;1.50;;
34489;SDS011;20730;49.372;7.324;2023-04-03T11:39:52;2.92;;;1.27;;
34489;SDS011;20730;49.372;7.324;2023-04-03T11:42:30;4.20;;;1.40;;
34489;SDS011;20730;49.372;7.324;2023-04-03T11:47:53;3.90;;;1.63;;
34489;SDS011;20730;49.372;7.324;2023-04-03T11:50:31;4.88;;;1.15;;
34489;SDS011;20730;49.372;7.324;2023-04-03T11:53:02;3.13;;;1.27;;
34489;SDS011;20730;49.372;7.324;2023-04-03T11:58:17;3.10;;;1.48;;
34489;SDS011;20730;49.372;7.324;2023-04-03T12:16:03;3.05;;;1.42;;
34489;SDS011;20730;49.372;7.324;2023-04-03T12:18:41;5.03;;;1.58;;
34489;SDS011;20730;49.372;7.324;2023-04-03T12:21:12;3.20;;;1.50;;
34489;SDS011;20730;49.372;7.324;2023-04-03T12:24:03;3.15;;;1.40;;
34489;SDS011;20730;49.372;7.324;2023-04-03T12:29:20;2.78;;;1.50;;
34489;SDS011;20730;49.372;7.324;2023-04-03T12:32:40;3.20;;;1.58;;
34489;SDS011;20730;49.372;7.324;2023-04-03T12:46:38;3.83;;;1.88;;
34489;SDS011;20730;49.372;7.324;2023-04-03T12:49:22;3.38;;;1.60;;
34489;SDS011;20730;49.372;7.324;2023-04-03T12:51:52;4.43;;;1.40;;
34489;SDS011;20730;49.372;7.324;2023-04-03T12:54:21;3.80;;;1.48;;
34489;SDS011;20730;49.372;7.324;2023-04-03T12:56:50;2.92;;;1.33;;
34489;SDS011;20730;49.372;7.324;2023-04-03T12:59:24;5.47;;;1.35;;
34489;SDS011;20730;49.372;7.324;2023-04-03T13:01:53;3.83;;;1.38;;
34489;SDS011;20730;49.372;7.324;2023-04-03T13:04:21;2.15;;;0.95;;
34489;SDS011;20730;49.372;7.324;2023-04-03T13:06:48;4.30;;;1.50;;
34489;SDS011;20730;49.372;7.324;2023-04-03T13:09:20;2.60;;;1.58;;
34489;SDS011;20730;49.372;7.324;2023-04-03T13:11:49;3.53;;;1.70;;
34489;SDS011;20730;49.372;7.324;2023-04-03T13:14:18;1.10;;;0.90;;
34489;SDS011;20730;49.372;7.324;2023-04-03T13:16:57;4.72;;;1.60;;
34489;SDS011;20730;49.372;7.324;2023-04-03T13:19:27;3.45;;;1.80;;
34489;SDS011;20730;49.372;7.324;2023-04-03T13:21:58;3.38;;;1.60;;
34489;SDS011;20730;49.372;7.324;2023-04-03T13:24:27;2.10;;;1.33;;
34489;SDS011;20730;49.372;7.324;2023-04-03T13:26:56;3.65;;;1.80;;
34489;SDS011;20730;49.372;7.324;2023-04-03T13:29:26;2.28;;;1.33;;
34489;SDS011;20730;49.372;7.324;2023-04-03T13:32:03;3.28;;;1.52;;
34489;SDS011;20730;49.372;7.324;2023-04-03T13:34:41;2.70;;;1.33;;
34489;SDS011;20730;49.372;7.324;2023-04-03T13:37:32;3.08;;;1.60;;
34489;SDS011;20730;49.372;7.324;2023-04-03T13:40:08;3.90;;;1.20;;
34489;SDS011;20730;49.372;7.324;2023-04-03T13:42:38;2.83;;;1.20;;
34489;SDS011;20730;49.372;7.324;2023-04-03T13:47:43;4.35;;;1.65;;
34489;SDS011;20730;49.372;7.324;2023-04-03T13:55:51;2.75;;;1.40;;
34489;SDS011;20730;49.372;7.324;2023-04-03T13:58:26;3.92;;;1.55;;
34489;SDS011;20730;49.372;7.324;2023-04-03T14:00:56;3.17;;;1.27;;
34489;SDS011;20730;49.372;7.324;2023-04-03T14:03:31;3.17;;;1.70;;
34489;SDS011;20730;49.372;7.324;2023-04-03T14:06:00;4.07;;;1.45;;
34489;SDS011;20730;49.372;7.324;2023-04-03T14:08:27;3.78;;;1.92;;
34489;SDS011;20730;49.372;7.324;2023-04-03T14:11:15;5.90;;;1.27;;
34489;SDS011;20730;49.372;7.324;2023-04-03T14:13:44;3.53;;;1.40;;
34489;SDS011;20730;49.372;7.324;2023-04-03T14:16:17;2.78;;;1.40;;
34489;SDS011;20730;49.372;7.324;2023-04-03T14:18:45;2.28;;;1.65;;
34489;SDS011;20730;49.372;7.324;2023-04-03T14:21:14;4.50;;;1.80;;
34489;SDS011;20730;49.372;7.324;2023-04-03T14:23:41;3.85;;;1.65;;
34489;SDS011;20730;49.372;7.324;2023-04-03T14:26:15;5.60;;;1.98;;
34489;SDS011;20730;49.372;7.324;2023-04-03T14:28:45;4.55;;;1.90;;
34489;SDS011;20730;49.372;7.324;2023-04-03T14:31:13;4.45;;;1.90;;
34489;SDS011;20730;49.372;7.324;2023-04-03T14:33:42;4.05;;;1.48;;
34489;SDS011;20730;49.372;7.324;2023-04-03T14:36:20;5.43;;;1.73;;
34489;SDS011;20730;49.372;7.324;2023-04-03T14:38:48;5.33;;;1.77;;
34489;SDS011;20730;49.372;7.324;2023-04-03T14:41:17;6.38;;;1.67;;
34489;SDS011;20730;49.372;7.324;2023-04-03T14:43:46;5.32;;;1.70;;
34489;SDS011;20730;49.372;7.324;2023-04-03T14:46:18;5.63;;;1.50;;
34489;SDS011;20730;49.372;7.324;2023-04-03T14:48:45;2.33;;;1.40;;
34489;SDS011;20730;49.372;7.324;2023-04-03T14:51:12;6.32;;;1.90;;
34489;SDS011;20730;49.372;7.324;2023-04-03T14:53:40;4.97;;;1.65;;
34489;SDS011;20730;49.372;7.324;2023-04-03T14:56:27;4.25;;;1.33;;
34489;SDS011;20730;49.372;7.324;2023-04-03T14:58:59;2.13;;;1.48;;
34489;SDS011;20730;49.372;7.324;2023-04-03T15:01:29;4.38;;;1.80;;
34489;SDS011;20730;49.372;7.324;2023-04-03T15:03:55;4.18;;;2.03;;
34489;SDS011;20730;49.372;7.324;2023-04-03T15:06:22;5.47;;;2.15;;
34489;SDS011;20730;49.372;7.324;2023-04-03T15:08:50;6.38;;;1.70;;
34489;SDS011;20730;49.372;7.324;2023-04-03T15:11:16;4.93;;;1.40;;
34489;SDS011;20730;49.372;7.324;2023-04-03T15:13:43;3.53;;;1.55;;
34489;SDS011;20730;49.372;7.324;2023-04-03T15:16:12;3.92;;;1.90;;
34489;SDS011;20730;49.372;7.324;2023-04-03T15:18:42;5.30;;;1.80;;
34489;SDS011;20730;49.372;7.324;2023-04-03T15:21:09;4.00;;;1.85;;
34489;SDS011;20730;49.372;7.324;2023-04-03T15:23:36;2.97;;;1.48;;
34489;SDS011;20730;49.372;7.324;2023-04-03T15:26:03;4.93;;;1.77;;
34489;SDS011;20730;49.372;7.324;2023-04-03T15:28:31;3.40;;;1.77;;
34489;SDS011;20730;49.372;7.324;2023-04-03T15:30:59;2.47;;;1.60;;
34489;SDS011;20730;49.372;7.324;2023-04-03T15:33:26;4.75;;;2.17;;
34489;SDS011;20730;49.372;7.324;2023-04-03T15:35:53;6.07;;;2.13;;
34489;SDS011;20730;49.372;7.324;2023-04-03T15:38:32;3.58;;;1.95;;
34489;SDS011;20730;49.372;7.324;2023-04-03T15:40:59;3.28;;;1.73;;
34489;SDS011;20730;49.372;7.324;2023-04-03T15:43:26;2.72;;;1.58;;
34489;SDS011;20730;49.372;7.324;2023-04-03T15:45:52;3.55;;;1.73;;
34489;SDS011;20730;49.372;7.324;2023-04-03T15:50:49;2.47;;;1.50;;
34489;SDS011;20730;49.372;7.324;2023-04-03T15:53:16;3.83;;;1.50;;
34489;SDS011;20730;49.372;7.324;2023-04-03T15:55:43;3.42;;;1.77;;
34489;SDS011;20730;49.372;7.324;2023-04-03T15:58:09;4.70;;;2.20;;
34489;SDS011;20730;49.372;7.324;2023-04-03T16:00:37;2.28;;;1.50;;
34489;SDS011;20730;49.372;7.324;2023-04-03T16:03:05;3.92;;;1.80;;
34489;SDS011;20730;49.372;7.324;2023-04-03T16:05:35;2.55;;;1.80;;
34489;SDS011;20730;49.372;7.324;2023-04-03T16:08:03;4.72;;;1.98;;
34489;SDS011;20730;49.372;7.324;2023-04-03T16:10:31;5.43;;;2.03;;
34489;SDS011;20730;49.372;7.324;2023-04-03T16:12:58;3.38;;;2.10;;
34489;SDS011;20730;49.372;7.324;2023-04-03T16:15:24;4.22;;;2.30;;
34489;SDS011;20730;49.372;7.324;2023-04-03T16:17:52;3.75;;;2.20;;
34489;SDS011;20730;49.372;7.324;2023-04-03T16:20:19;3.97;;;2.17;;
34489;SDS011;20730;49.372;7.324;2023-04-03T16:22:48;4.93;;;1.80;;
34489;SDS011;20730;49.372;7.324;2023-04-03T16:25:15;3.83;;;2.03;;
34489;SDS011;20730;49.372;7.324;2023-04-03T16:27:42;3.47;;;2.10;;
34489;SDS011;20730;49.372;7.324;2023-04-03T16:30:08;5.80;;;2.17;;
34489;SDS011;20730;49.372;7.324;2023-04-03T16:32:37;5.25;;;2.42;;
34489;SDS011;20730;49.372;7.324;2023-04-03T16:35:05;5.30;;;2.05;;
34489;SDS011;20730;49.372;7.324;2023-04-03T16:37:32;4.57;;;2.25;;
34489;SDS011;20730;49.372;7.324;2023-04-03T16:39:58;4.18;;;1.80;;
34489;SDS011;20730;49.372;7.324;2023-04-03T16:42:25;3.67;;;2.10;;
34489;SDS011;20730;49.372;7.324;2023-04-03T16:44:52;4.03;;;2.20;;
34489;SDS011;20730;49.372;7.324;2023-04-03T16:47:18;4.28;;;2.05;;
34489;SDS011;20730;49.372;7.324;2023-04-03T16:49:46;3.67;;;2.13;;
34489;SDS011;20730;49.372;7.324;2023-04-03T16:52:13;6.07;;;2.60;;
34489;SDS011;20730;49.372;7.324;2023-04-03T16:54:40;6.13;;;2.55;;
34489;SDS011;20730;49.372;7.324;2023-04-03T16:57:06;3.22;;;2.00;;
34489;SDS011;20730;49.372;7.324;2023-04-03T16:59:33;7.35;;;2.22;;